Time;durP1;ratioP1;P1;durP2;ratioP2;P2;SDS_P1;SDS_P2;PMS_P1;PMS_P2;Temp;Humidity;BMP_temperature;BMP_pressure;BME280_temperature;BME280_humidity;BME280_pressure;Samples;Min_cycle;Max_cycle;Signal;HPM_P1;HPM_P2
2021/12/16 00:34:22;;;;;;;6.50;6.20;;;7.60;86.70;;;;;;4948066;28;20063;-82
2021/12/16 00:36:48;;;;;;;8.13;7.73;;;7.60;86.80;;;;;;4935245;29;20035;-82
2021/12/16 00:39:24;;;;;;;14.93;14.07;;;7.60;86.80;;;;;;4950614;29;20046;-82
2021/12/16 00:41:56;;;;;;;9.53;8.93;;;7.70;86.90;;;;;;4950515;29;20068;-82
2021/12/16 00:44:48;;;;;;;10.43;9.73;;;7.70;86.90;;;;;;4962503;28;20048;-81
2021/12/16 00:49:42;;;;;;;7.67;7.17;;;7.70;86.70;;;;;;4961841;28;20042;-81
2021/12/16 00:55:05;;;;;;;7.97;7.50;;;7.70;86.70;;;;;;4931510;29;20047;-81
2021/12/16 00:57:31;;;;;;;8.13;7.50;;;7.70;86.70;;;;;;4949842;29;20038;-81
2021/12/16 01:00:00;;;;;;;6.90;6.60;;;7.70;86.70;;;;;;4947098;29;20043;-81
2021/12/16 01:02:48;;;;;;;6.90;6.50;;;7.70;86.70;;;;;;4935784;28;20039;-82
2021/12/16 01:35:15;;;;;;;15.20;14.43;;;7.60;86.90;;;;;;4966594;28;20046;-81
2021/12/16 01:50:35;;;;;;;8.53;8.03;;;7.60;86.90;;;;;;4974876;28;20042;-81
2021/12/16 01:55:42;;;;;;;12.80;11.90;;;7.60;86.80;;;;;;4958915;28;20514;-81
2021/12/16 01:58:18;;;;;;;8.23;7.67;;;7.60;86.90;;;;;;4973830;28;20043;-81
2021/12/16 02:01:17;;;;;;;14.10;13.40;;;7.60;86.90;;;;;;4976002;28;20034;-81
2021/12/16 02:03:47;;;;;;;8.70;7.83;;;7.60;86.90;;;;;;4975874;28;20049;-81
2021/12/16 02:09:23;;;;;;;8.10;7.70;;;7.60;86.70;;;;;;4990063;28;20049;-81
2021/12/16 02:12:20;;;;;;;22.83;21.67;;;7.60;86.70;;;;;;4986708;28;20034;-81
2021/12/16 02:34:15;;;;;;;10.90;10.23;;;7.70;86.70;;;;;;4940812;28;20047;-81
2021/12/16 02:36:42;;;;;;;10.03;9.10;;;7.70;86.90;;;;;;4920246;29;20084;-81
2021/12/16 02:39:33;;;;;;;9.40;8.90;;;7.70;86.80;;;;;;4932077;29;20048;-81
2021/12/16 02:42:06;;;;;;;9.45;8.98;;;7.70;86.70;;;;;;4925075;29;20035;-81
2021/12/16 02:50:04;;;;;;;15.67;9.23;;;7.70;86.70;;;;;;4913684;29;20514;-82
2021/12/16 02:52:30;;;;;;;7.17;6.77;;;7.70;86.70;;;;;;4943141;29;20044;-81
2021/12/16 02:54:56;;;;;;;12.53;11.93;;;7.80;86.80;;;;;;4921421;29;20225;-81
2021/12/16 02:57:24;;;;;;;7.10;6.80;;;7.80;86.80;;;;;;4928666;29;20052;-81
2021/12/16 02:59:52;;;;;;;11.17;10.53;;;7.70;86.70;;;;;;4895738;29;20048;-81
2021/12/16 03:02:19;;;;;;;13.47;12.57;;;7.70;86.70;;;;;;4926075;28;20048;-81
2021/12/16 03:04:47;;;;;;;12.33;11.73;;;7.70;86.80;;;;;;4924419;29;20046;-81
2021/12/16 03:07:15;;;;;;;8.43;8.00;;;7.80;86.80;;;;;;4928546;29;20058;-81
2021/12/16 03:14:54;;;;;;;8.10;7.57;;;7.80;86.80;;;;;;4935794;29;20043;-81
2021/12/16 03:17:29;;;;;;;7.60;7.30;;;7.80;86.80;;;;;;4933078;28;20047;-81
2021/12/16 03:20:03;;;;;;;10.67;10.03;;;7.80;86.90;;;;;;4923507;28;20046;-81
2021/12/16 03:23:02;;;;;;;9.63;9.13;;;7.80;86.90;;;;;;4954563;28;20046;-81
2021/12/16 03:36:06;;;;;;;11.87;11.17;;;7.80;86.80;;;;;;5009536;28;20390;-81
2021/12/16 03:38:36;;;;;;;9.17;8.77;;;7.80;86.80;;;;;;4997070;28;20049;-81
2021/12/16 03:41:04;;;;;;;8.98;8.57;;;7.80;86.90;;;;;;5007763;28;20045;-80
2021/12/16 03:43:31;;;;;;;6.90;6.40;;;7.80;86.80;;;;;;5004277;28;20081;-80
2021/12/16 03:48:58;;;;;;;12.83;10.13;;;7.80;86.80;;;;;;5016897;28;20042;-80
2021/12/16 03:51:44;;;;;;;7.33;6.93;;;7.80;86.80;;;;;;4998448;28;20038;-80
2021/12/16 03:54:12;;;;;;;7.73;7.33;;;7.80;86.80;;;;;;5010840;28;20467;-81
2021/12/16 03:56:39;;;;;;;9.00;8.50;;;7.80;86.80;;;;;;4992772;28;20292;-83
2021/12/16 03:59:05;;;;;;;7.87;7.47;;;7.80;86.80;;;;;;4996918;28;20483;-81
2021/12/16 04:01:31;;;;;;;8.20;7.80;;;7.80;87.10;;;;;;5009550;28;20042;-81
2021/12/16 04:03:58;;;;;;;9.20;8.50;;;7.80;86.90;;;;;;5005055;28;20034;-81
2021/12/16 04:06:26;;;;;;;6.83;6.53;;;7.80;86.90;;;;;;4993129;28;20030;-81
2021/12/16 04:08:54;;;;;;;12.97;12.23;;;7.90;86.80;;;;;;4993581;28;20059;-81
2021/12/16 04:11:23;;;;;;;6.87;6.43;;;7.90;86.80;;;;;;4978631;28;20384;-81
2021/12/16 04:13:59;;;;;;;6.97;6.67;;;7.90;86.80;;;;;;5007282;28;20378;-81
2021/12/16 04:16:28;;;;;;;6.77;6.47;;;7.90;86.70;;;;;;5000349;28;20042;-81
2021/12/16 04:18:55;;;;;;;7.40;7.00;;;7.90;86.70;;;;;;4992955;28;20029;-81
2021/12/16 04:21:25;;;;;;;8.40;7.90;;;7.90;86.70;;;;;;4999816;28;20381;-81
2021/12/16 04:23:51;;;;;;;9.13;8.43;;;7.90;86.70;;;;;;5009150;28;20025;-81
2021/12/16 04:26:18;;;;;;;8.03;7.53;;;8.00;86.70;;;;;;5007541;28;20106;-81
2021/12/16 04:28:44;;;;;;;7.00;6.70;;;7.90;86.60;;;;;;4981270;28;20030;-81
2021/12/16 04:31:10;;;;;;;6.70;6.40;;;7.90;86.60;;;;;;4986291;28;20050;-81
2021/12/16 04:33:39;;;;;;;7.67;7.27;;;7.90;86.60;;;;;;5009607;28;20046;-81
2021/12/16 04:36:07;;;;;;;7.03;6.73;;;7.90;86.60;;;;;;4990747;28;20050;-81
2021/12/16 04:38:33;;;;;;;7.30;6.90;;;7.90;86.60;;;;;;5042020;28;20044;-81
2021/12/16 04:40:59;;;;;;;6.47;6.17;;;7.90;86.60;;;;;;4974550;28;20038;-81
2021/12/16 04:43:33;;;;;;;7.53;7.03;;;7.90;86.70;;;;;;4999480;28;20399;-81
2021/12/16 04:45:59;;;;;;;7.43;7.00;;;7.90;86.70;;;;;;4994873;28;20034;-81
2021/12/16 04:48:25;;;;;;;6.40;6.10;;;7.90;86.70;;;;;;4996441;28;20076;-81
2021/12/16 04:50:51;;;;;;;7.20;6.80;;;7.90;86.70;;;;;;4991872;28;20034;-80
2021/12/16 04:53:17;;;;;;;6.90;6.60;;;7.90;86.70;;;;;;5002385;28;20046;-80
2021/12/16 04:55:44;;;;;;;7.37;6.97;;;7.90;86.70;;;;;;5008400;28;20046;-81
2021/12/16 04:58:10;;;;;;;6.60;6.30;;;7.90;86.70;;;;;;5000414;28;20383;-81
2021/12/16 05:00:36;;;;;;;6.93;6.53;;;7.90;86.70;;;;;;4998009;28;20039;-81
2021/12/16 05:03:02;;;;;;;7.00;6.60;;;7.80;86.60;;;;;;4994552;28;20387;-81
2021/12/16 05:05:28;;;;;;;6.90;6.47;;;7.80;86.70;;;;;;5009305;28;20501;-81
2021/12/16 05:07:54;;;;;;;6.20;5.90;;;7.80;86.70;;;;;;5010018;28;20034;-81
2021/12/16 05:10:20;;;;;;;7.10;6.73;;;7.80;86.70;;;;;;5006996;28;20517;-80
2021/12/16 05:12:50;;;;;;;6.90;6.60;;;7.80;86.70;;;;;;4998063;28;20045;-81
2021/12/16 05:15:21;;;;;;;7.28;6.88;;;7.90;86.80;;;;;;4974331;28;20069;-81
2021/12/16 05:17:51;;;;;;;6.97;6.47;;;7.90;86.80;;;;;;5003857;28;20037;-81
2021/12/16 05:20:21;;;;;;;10.87;10.20;;;7.90;86.70;;;;;;4993185;28;20054;-81
2021/12/16 05:28:06;;;;;;;8.10;6.67;;;7.90;86.60;;;;;;5004664;28;20030;-80
2021/12/16 05:30:33;;;;;;;6.93;6.63;;;7.90;86.60;;;;;;5005360;28;20034;-80
2021/12/16 05:32:59;;;;;;;6.80;6.50;;;7.90;86.50;;;;;;5008160;28;20071;-81
2021/12/16 05:35:25;;;;;;;6.50;6.20;;;7.90;86.60;;;;;;4991981;28;20061;-81
2021/12/16 05:37:51;;;;;;;6.47;6.17;;;7.90;86.60;;;;;;5002681;28;20034;-80
2021/12/16 05:40:23;;;;;;;6.43;6.13;;;7.80;86.60;;;;;;5005493;28;20038;-79
2021/12/16 05:42:57;;;;;;;8.00;7.60;;;7.80;86.70;;;;;;4996156;28;20026;-80
2021/12/16 05:45:23;;;;;;;6.73;6.43;;;7.80;86.80;;;;;;5008373;28;20034;-79
2021/12/16 05:47:51;;;;;;;7.27;6.97;;;7.80;86.80;;;;;;5012387;28;20026;-80
2021/12/16 05:50:17;;;;;;;6.35;6.05;;;7.80;86.80;;;;;;5011465;28;20022;-79
2021/12/16 05:52:43;;;;;;;12.10;11.40;;;7.80;86.80;;;;;;4978166;28;20038;-80
2021/12/16 05:55:10;;;;;;;10.37;9.77;;;7.80;86.80;;;;;;4992394;28;20053;-81
2021/12/16 05:57:36;;;;;;;6.93;6.63;;;7.80;86.80;;;;;;5009889;28;20041;-80
2021/12/16 06:00:04;;;;;;;7.32;6.93;;;7.80;86.70;;;;;;4996491;28;20032;-83
2021/12/16 06:02:30;;;;;;;6.93;6.50;;;7.90;86.70;;;;;;4997214;28;20030;-83
2021/12/16 06:04:56;;;;;;;6.70;6.40;;;7.80;86.70;;;;;;4983556;28;20483;-82
2021/12/16 06:07:22;;;;;;;7.70;7.20;;;7.80;87.40;;;;;;4993209;28;20034;-82
2021/12/16 06:09:48;;;;;;;7.50;7.00;;;7.80;86.70;;;;;;4999744;28;20089;-82
2021/12/16 06:12:14;;;;;;;7.90;7.50;;;7.70;86.70;;;;;;5033566;28;20030;-83
2021/12/16 06:14:52;;;;;;;7.30;6.90;;;7.80;86.90;;;;;;5000139;28;20041;-83
2021/12/16 06:28:30;;;;;;;6.90;6.60;;;7.80;86.70;;;;;;4960460;28;20050;-83
2021/12/16 06:30:56;;;;;;;9.20;8.77;;;7.80;86.60;;;;;;4955013;28;20518;-83
2021/12/16 06:33:23;;;;;;;8.27;7.77;;;7.80;87.40;;;;;;4976118;28;20090;-83
2021/12/16 06:35:52;;;;;;;8.97;8.57;;;7.80;86.60;;;;;;4953524;28;20505;-83
2021/12/16 06:38:19;;;;;;;7.30;6.90;;;7.80;86.60;;;;;;4929658;28;20051;-82
2021/12/16 06:40:45;;;;;;;8.20;7.63;;;7.80;86.60;;;;;;4952336;28;20039;-82
2021/12/16 06:43:13;;;;;;;6.93;6.63;;;7.80;86.60;;;;;;4968224;28;20046;-82
2021/12/16 06:45:43;;;;;;;6.97;6.67;;;7.80;86.60;;;;;;4954680;28;20041;-84
2021/12/16 06:48:14;;;;;;;7.28;6.88;;;7.90;86.60;;;;;;4955677;28;20425;-84
2021/12/16 06:50:48;;;;;;;7.15;6.85;;;7.80;86.50;;;;;;4938970;28;20058;-84
2021/12/16 06:53:22;;;;;;;6.90;6.60;;;7.80;86.50;;;;;;4954092;28;20118;-83
2021/12/16 07:00:47;;;;;;;6.60;6.30;;;7.90;86.50;;;;;;4968964;28;20035;-85
2021/12/16 07:03:22;;;;;;;7.23;6.83;;;7.80;86.50;;;;;;4949275;28;20399;-81
2021/12/16 07:05:53;;;;;;;6.63;6.33;;;7.90;86.60;;;;;;5011256;28;20410;-81
2021/12/16 07:08:21;;;;;;;7.90;7.50;;;7.90;86.50;;;;;;5006253;28;20027;-82
2021/12/16 07:10:48;;;;;;;7.78;7.38;;;7.90;86.50;;;;;;4995097;28;20029;-81
2021/12/16 07:13:18;;;;;;;7.70;7.30;;;7.90;86.40;;;;;;5006285;28;20037;-81
2021/12/16 07:15:45;;;;;;;7.50;7.10;;;7.90;86.40;;;;;;4983951;28;20050;-81
2021/12/16 07:18:11;;;;;;;6.80;6.50;;;7.90;86.40;;;;;;4984002;28;20045;-83
2021/12/16 07:20:38;;;;;;;7.57;7.27;;;7.90;86.30;;;;;;4994020;28;20117;-83
2021/12/16 07:23:05;;;;;;;11.83;11.17;;;7.90;86.30;;;;;;4976026;28;20046;-83
2021/12/16 07:25:32;;;;;;;7.27;6.70;;;7.90;86.30;;;;;;5010131;28;20030;-83
2021/12/16 07:27:58;;;;;;;12.83;12.23;;;7.90;86.30;;;;;;5010537;28;20018;-83
2021/12/16 07:30:25;;;;;;;6.83;6.53;;;7.90;86.30;;;;;;5008507;28;20026;-83
2021/12/16 07:32:52;;;;;;;6.55;6.25;;;7.90;86.30;;;;;;4994090;28;20033;-83
2021/12/16 07:35:20;;;;;;;6.40;6.10;;;7.80;86.20;;;;;;5011496;28;20483;-83
2021/12/16 07:37:46;;;;;;;9.07;8.67;;;7.80;86.20;;;;;;4995909;28;20029;-83
2021/12/16 07:40:15;;;;;;;7.03;6.73;;;7.80;86.20;;;;;;5004022;28;20045;-85
2021/12/16 07:42:59;;;;;;;6.50;6.20;;;7.80;86.30;;;;;;5007073;28;20395;-83
2021/12/16 07:45:26;;;;;;;6.53;6.23;;;7.80;86.20;;;;;;4998131;28;20475;-83
2021/12/16 07:47:52;;;;;;;7.00;6.70;;;7.80;86.30;;;;;;5009595;28;20034;-88
2021/12/16 07:50:18;;;;;;;8.37;7.97;;;7.70;86.20;;;;;;5008820;28;20033;-84
2021/12/16 07:52:44;;;;;;;6.47;5.97;;;7.70;86.20;;;;;;5014411;28;20029;-82
2021/12/16 07:55:11;;;;;;;7.30;6.80;;;7.70;86.20;;;;;;5001580;28;20387;-85
2021/12/16 07:57:37;;;;;;;6.63;6.27;;;7.70;86.20;;;;;;5008856;28;20041;-83
2021/12/16 08:00:09;;;;;;;6.20;5.90;;;7.70;86.20;;;;;;4990877;28;20049;-85
2021/12/16 08:02:37;;;;;;;6.67;6.30;;;7.70;86.30;;;;;;5010155;28;20822;-85
2021/12/16 08:05:05;;;;;;;7.18;6.78;;;7.70;86.20;;;;;;4997271;28;20480;-86
2021/12/16 08:07:31;;;;;;;6.70;6.40;;;7.70;86.30;;;;;;4983316;28;20050;-86
2021/12/16 08:09:57;;;;;;;11.50;11.00;;;7.70;86.30;;;;;;4981629;28;20491;-86
2021/12/16 08:12:24;;;;;;;12.35;11.65;;;7.70;86.20;;;;;;5000951;28;20037;-86
2021/12/16 08:14:50;;;;;;;6.83;6.50;;;7.70;86.20;;;;;;5004191;28;20064;-83
2021/12/16 08:17:16;;;;;;;6.87;6.57;;;7.70;86.20;;;;;;5007071;28;20069;-84
2021/12/16 08:19:42;;;;;;;6.17;5.87;;;7.70;86.20;;;;;;4988279;28;20041;-88
2021/12/16 08:22:08;;;;;;;6.50;6.20;;;7.60;86.20;;;;;;5022417;28;20025;-88
2021/12/16 08:24:34;;;;;;;6.40;6.10;;;7.70;86.40;;;;;;5005469;28;20034;-85
2021/12/16 08:27:01;;;;;;;6.80;6.50;;;7.70;86.40;;;;;;5010220;28;20037;-85
2021/12/16 08:29:27;;;;;;;8.97;8.57;;;7.70;86.40;;;;;;4992508;28;20046;-84
2021/12/16 08:31:53;;;;;;;7.60;7.23;;;7.70;86.30;;;;;;4991756;28;20027;-84
2021/12/16 08:34:19;;;;;;;7.17;6.63;;;7.70;86.20;;;;;;5006038;28;20053;-84
2021/12/16 08:36:46;;;;;;;6.50;6.20;;;7.70;86.10;;;;;;5007051;28;20038;-82
2021/12/16 08:39:12;;;;;;;7.27;6.97;;;7.70;86.10;;;;;;4990481;28;20472;-82
2021/12/16 08:41:45;;;;;;;8.43;8.03;;;7.60;86.00;;;;;;4993960;28;20038;-82
2021/12/16 08:44:12;;;;;;;6.43;6.13;;;7.60;86.10;;;;;;4990620;28;20038;-85
2021/12/16 08:46:41;;;;;;;6.97;6.63;;;7.60;86.10;;;;;;4998431;28;20191;-85
2021/12/16 08:49:07;;;;;;;6.43;6.13;;;7.70;86.20;;;;;;4976385;28;20042;-87
2021/12/16 08:51:36;;;;;;;6.13;5.83;;;7.70;86.10;;;;;;5006225;28;20042;-87
2021/12/16 08:54:03;;;;;;;6.07;5.77;;;7.70;86.00;;;;;;5009445;28;20022;-91
2021/12/16 08:56:30;;;;;;;6.97;6.67;;;7.70;86.00;;;;;;4995113;28;20046;-87
2021/12/16 08:58:56;;;;;;;6.40;6.10;;;7.70;85.90;;;;;;4995820;28;20454;-85
2021/12/16 09:01:25;;;;;;;6.40;6.10;;;7.80;86.00;;;;;;4990350;28;20041;-88
2021/12/16 09:03:51;;;;;;;6.60;6.30;;;7.80;85.90;;;;;;4979763;28;20042;-86
2021/12/16 09:06:17;;;;;;;6.70;6.40;;;7.80;85.90;;;;;;4991254;28;20488;-85
2021/12/16 09:08:43;;;;;;;6.00;5.70;;;7.80;85.70;;;;;;4989026;28;20045;-85
2021/12/16 09:11:10;;;;;;;6.70;6.33;;;7.80;85.70;;;;;;5011590;28;20045;-86
2021/12/16 09:13:38;;;;;;;7.83;7.23;;;7.90;85.70;;;;;;4972627;28;20488;-83
2021/12/16 09:16:06;;;;;;;6.60;6.30;;;7.90;85.70;;;;;;4999369;28;20050;-80
2021/12/16 09:18:34;;;;;;;7.90;7.50;;;7.90;85.60;;;;;;5010897;28;20672;-84
2021/12/16 09:21:01;;;;;;;6.50;6.20;;;7.90;85.60;;;;;;5005794;28;20026;-85
2021/12/16 09:23:28;;;;;;;7.90;7.50;;;8.00;85.50;;;;;;5012859;28;20030;-84
2021/12/16 09:25:54;;;;;;;7.10;6.73;;;8.00;85.50;;;;;;5014672;28;20033;-87
2021/12/16 09:28:22;;;;;;;10.73;10.23;;;8.10;85.50;;;;;;5009431;28;20073;-83
2021/12/16 09:30:48;;;;;;;8.40;8.00;;;8.10;85.40;;;;;;5016343;28;20042;-84
2021/12/16 09:33:16;;;;;;;8.37;7.97;;;8.10;85.20;;;;;;4995773;28;20042;-86
2021/12/16 09:35:47;;;;;;;8.45;8.05;;;8.10;85.10;;;;;;5007957;28;20037;-84
2021/12/16 09:38:14;;;;;;;6.50;6.20;;;8.20;85.00;;;;;;5010380;28;20041;-84
2021/12/16 09:40:47;;;;;;;7.73;7.27;;;8.20;84.90;;;;;;5013738;28;20041;-84
2021/12/16 09:43:13;;;;;;;7.43;6.80;;;8.20;84.70;;;;;;5006901;28;20022;-83
2021/12/16 09:45:39;;;;;;;7.40;7.00;;;8.20;84.70;;;;;;4995839;28;20037;-83
2021/12/16 09:48:05;;;;;;;8.10;7.70;;;8.30;84.70;;;;;;5011998;28;20033;-83
2021/12/16 09:50:32;;;;;;;7.55;7.25;;;8.30;85.30;;;;;;4997078;28;20034;-84
2021/12/16 09:52:58;;;;;;;7.60;7.00;;;8.40;84.50;;;;;;4996074;28;20042;-84
2021/12/16 09:55:25;;;;;;;7.10;6.80;;;8.40;84.40;;;;;;4993566;28;20042;-84
2021/12/16 09:57:51;;;;;;;8.23;7.75;;;8.40;84.40;;;;;;5011680;28;20044;-84
2021/12/16 10:00:22;;;;;;;7.32;7.03;;;8.40;84.20;;;;;;4979354;28;20038;-87
2021/12/16 10:02:49;;;;;;;7.93;7.53;;;8.50;84.30;;;;;;4993176;28;20052;-85
2021/12/16 10:05:15;;;;;;;7.45;7.15;;;8.50;84.10;;;;;;5004942;28;20030;-86
2021/12/16 10:07:41;;;;;;;7.40;7.03;;;8.50;84.10;;;;;;5012959;28;20391;-88
2021/12/16 10:10:11;;;;;;;6.80;6.50;;;8.60;84.00;;;;;;4995306;28;20037;-84
2021/12/16 10:12:40;;;;;;;7.13;6.82;;;8.60;83.90;;;;;;5006875;28;20396;-85
2021/12/16 10:17:23;;;;;;;7.50;7.10;;;8.60;83.70;;;;;;5016659;28;20030;-85
2021/12/16 10:17:55;;;;;;;7.13;6.82;;;8.70;83.80;;;;;;4999610;28;20046;-86
2021/12/16 10:20:27;;;;;;;6.50;6.20;;;8.70;83.60;;;;;;5007069;28;20034;-83
2021/12/16 10:23:11;;;;;;;7.30;7.00;;;8.80;83.50;;;;;;4990643;28;20045;-82
2021/12/16 10:25:41;;;;;;;10.00;9.52;;;8.80;83.30;;;;;;4988093;28;20049;-82
2021/12/16 10:28:14;;;;;;;6.90;6.60;;;8.80;83.20;;;;;;4988040;28;20511;-83
2021/12/16 10:30:42;;;;;;;8.07;7.68;;;8.80;83.20;;;;;;5012196;28;20033;-83
2021/12/16 10:33:36;;;;;;;9.35;8.95;;;8.90;83.10;;;;;;4990843;28;20045;-85
2021/12/16 10:36:18;;;;;;;8.80;8.40;;;8.90;83.00;;;;;;4971138;28;20058;-85
2021/12/16 10:38:55;;;;;;;13.82;13.20;;;8.90;82.80;;;;;;4975408;28;20046;-84
2021/12/16 10:41:29;;;;;;;11.40;10.80;;;9.00;82.80;;;;;;4973130;28;20043;-82
2021/12/16 10:44:14;;;;;;;9.18;8.73;;;9.00;82.70;;;;;;4955467;28;20042;-82
2021/12/16 10:47:12;;;;;;;8.43;8.02;;;9.10;82.40;;;;;;4958398;28;20053;-82
2021/12/16 10:49:43;;;;;;;9.70;9.30;;;9.30;82.30;;;;;;4974594;28;20057;-83
2021/12/16 10:52:15;;;;;;;10.50;9.80;;;9.50;81.70;;;;;;4971554;28;20030;-87
2021/12/16 10:54:46;;;;;;;11.00;10.50;;;9.60;81.30;;;;;;4953733;28;20049;-85
2021/12/16 10:57:19;;;;;;;;;;;9.70;81.10;;;;;;4960369;28;20046;-89
2021/12/16 10:59:46;;;;;;;8.30;7.90;;;9.70;81.00;;;;;;4975724;28;19910;-82
2021/12/16 11:02:19;;;;;;;9.02;8.63;;;9.70;80.80;;;;;;4978249;28;20046;-87
2021/12/16 11:04:45;;;;;;;9.02;8.60;;;9.70;80.70;;;;;;4979389;28;20066;-84
2021/12/16 11:07:22;;;;;;;9.20;8.70;;;9.80;80.80;;;;;;4984356;28;20046;-83
2021/12/16 11:09:53;;;;;;;9.93;9.48;;;10.00;80.60;;;;;;4970594;28;20065;-82
2021/12/16 11:12:27;;;;;;;10.60;10.00;;;10.10;79.90;;;;;;4974376;28;20510;-83
2021/12/16 11:14:55;;;;;;;10.55;10.05;;;10.20;79.40;;;;;;5011672;28;20026;-85
2021/12/16 11:17:23;;;;;;;10.07;9.57;;;10.30;79.20;;;;;;5008153;28;20046;-81
2021/12/16 11:20:13;;;;;;;10.85;10.35;;;10.40;79.10;;;;;;5007358;28;20021;-82
2021/12/16 11:22:39;;;;;;;10.30;9.20;;;10.50;78.80;;;;;;5008191;28;20644;-82
2021/12/16 11:25:21;;;;;;;17.02;16.23;;;10.60;78.10;;;;;;5004808;28;20490;-81
2021/12/16 11:28:09;;;;;;;11.45;10.95;;;10.60;77.90;;;;;;5000229;28;20034;-83
2021/12/16 11:30:46;;;;;;;8.45;8.05;;;10.70;77.90;;;;;;4999157;28;20033;-81
2021/12/16 11:33:21;;;;;;;8.95;8.55;;;10.70;78.20;;;;;;5011204;28;20053;-82
2021/12/16 11:35:51;;;;;;;9.93;9.07;;;10.70;78.20;;;;;;4993151;28;20025;-83
2021/12/16 11:38:19;;;;;;;13.43;12.82;;;10.80;78.40;;;;;;4989759;28;20054;-81
2021/12/16 11:40:58;;;;;;;10.95;10.45;;;10.90;78.20;;;;;;4991274;28;20046;-82
2021/12/16 11:43:32;;;;;;;9.85;9.35;;;11.00;77.80;;;;;;5007549;28;20037;-83
2021/12/16 11:45:58;;;;;;;11.65;11.05;;;11.10;77.60;;;;;;4984071;28;20042;-83
2021/12/16 11:48:35;;;;;;;11.48;10.98;;;11.30;77.30;;;;;;4979621;28;20034;-82
2021/12/16 11:51:16;;;;;;;12.93;12.32;;;11.50;77.10;;;;;;4988548;28;20046;-82
2021/12/16 11:53:49;;;;;;;13.57;12.98;;;11.50;76.30;;;;;;4989907;28;20022;-82
2021/12/16 11:56:15;;;;;;;12.50;11.90;;;11.60;76.20;;;;;;4986421;28;20034;-82
2021/12/16 11:58:42;;;;;;;11.50;11.00;;;11.60;75.90;;;;;;4990390;28;20581;-82
2021/12/16 12:01:20;;;;;;;11.00;10.50;;;11.70;75.90;;;;;;4993335;28;20038;-81
2021/12/16 12:03:46;;;;;;;14.43;13.75;;;11.80;75.60;;;;;;5007922;28;20034;-82
2021/12/16 12:06:25;;;;;;;12.15;11.60;;;11.80;75.40;;;;;;5008123;28;20053;-82
2021/12/16 12:08:52;;;;;;;17.83;17.02;;;11.80;75.20;;;;;;5009201;28;20034;-81
2021/12/16 12:11:25;;;;;;;11.13;10.63;;;11.80;74.90;;;;;;4988477;28;20038;-82
2021/12/16 12:13:56;;;;;;;11.40;10.90;;;11.70;74.90;;;;;;5010380;28;20037;-82
2021/12/16 12:16:31;;;;;;;10.73;10.13;;;11.60;75.20;;;;;;5008752;28;20053;-81
2021/12/16 12:19:07;;;;;;;11.00;10.50;;;11.60;75.40;;;;;;5009396;28;20033;-81
2021/12/16 12:21:33;;;;;;;11.15;10.65;;;11.80;75.30;;;;;;5007464;28;20033;-81
2021/12/16 12:24:11;;;;;;;12.38;11.68;;;11.90;74.90;;;;;;5009372;28;20037;-81
2021/12/16 12:26:55;;;;;;;13.55;12.95;;;12.00;74.60;;;;;;5008961;28;20053;-81
2021/12/16 12:29:28;;;;;;;14.40;13.70;;;12.00;74.10;;;;;;4988823;28;20720;-82
2021/12/16 12:31:57;;;;;;;14.77;14.07;;;12.00;74.00;;;;;;4983847;28;20033;-81
2021/12/16 12:34:25;;;;;;;12.18;11.57;;;12.00;73.80;;;;;;5007147;28;20089;-79
2021/12/16 12:36:54;;;;;;;11.77;11.18;;;12.00;73.30;;;;;;5009522;28;20038;-80
2021/12/16 12:39:22;;;;;;;11.88;11.30;;;12.10;73.30;;;;;;4988269;28;20043;-79
2021/12/16 12:41:48;;;;;;;12.60;12.00;;;12.10;73.20;;;;;;4991469;28;20037;-79
2021/12/16 12:44:14;;;;;;;12.10;11.57;;;12.00;73.40;;;;;;5011600;28;20467;-76
2021/12/16 12:46:42;;;;;;;16.63;15.82;;;12.00;73.60;;;;;;5006564;28;20483;-77
2021/12/16 12:49:11;;;;;;;11.90;11.40;;;11.90;73.60;;;;;;5010646;28;20414;-77
2021/12/16 12:51:48;;;;;;;11.80;11.30;;;11.80;73.90;;;;;;5012617;28;20038;-77
2021/12/16 12:54:14;;;;;;;11.43;10.93;;;11.70;73.90;;;;;;5012805;28;20026;-81
2021/12/16 12:56:40;;;;;;;12.38;11.77;;;11.80;74.20;;;;;;5000940;28;20049;-81
2021/12/16 12:59:11;;;;;;;12.27;11.68;;;11.70;73.80;;;;;;5025979;28;20038;-81
2021/12/16 13:01:40;;;;;;;11.77;11.27;;;11.70;74.00;;;;;;5011282;28;20037;-81
2021/12/16 13:04:29;;;;;;;11.48;10.98;;;11.80;73.60;;;;;;4991510;28;20064;-81
2021/12/16 13:06:56;;;;;;;11.88;11.30;;;12.00;73.50;;;;;;4990368;28;20404;-81
2021/12/16 13:09:35;;;;;;;12.18;11.57;;;12.10;73.10;;;;;;5012993;28;20026;-81
2021/12/16 13:12:03;;;;;;;12.43;11.82;;;12.20;72.90;;;;;;4994079;28;20403;-81
2021/12/16 13:14:43;;;;;;;12.65;12.05;;;12.40;72.70;;;;;;4981359;28;20089;-81
2021/12/16 13:31:39;;;;;;;13.07;12.48;;;12.30;72.50;;;;;;5005867;28;20034;-81
2021/12/16 13:34:25;;;;;;;15.02;14.32;;;12.30;72.50;;;;;;5010168;28;20034;-81
2021/12/16 13:36:55;;;;;;;14.27;13.63;;;12.30;72.40;;;;;;5012256;28;20049;-81
2021/12/16 13:39:25;;;;;;;14.25;13.60;;;12.20;72.40;;;;;;5010937;28;20419;-81
2021/12/16 13:41:54;;;;;;;15.02;14.32;;;12.20;72.60;;;;;;5011759;28;20032;-81
2021/12/16 13:44:35;;;;;;;13.90;13.30;;;12.10;72.70;;;;;;4987483;28;20042;-81
2021/12/16 13:47:34;;;;;;;14.07;13.48;;;12.00;72.80;;;;;;4997584;28;20038;-81
2021/12/16 14:01:31;;;;;;;13.00;12.40;;;12.00;72.90;;;;;;4945473;28;20039;-82
2021/12/16 14:04:24;;;;;;;14.75;14.05;;;12.00;72.70;;;;;;4928688;29;20047;-82
2021/12/16 14:06:57;;;;;;;14.82;14.13;;;12.00;72.50;;;;;;4930226;29;20027;-82
2021/12/16 14:09:28;;;;;;;14.52;13.82;;;12.00;72.40;;;;;;4926226;29;20074;-81
2021/12/16 14:23:58;;;;;;;18.42;17.60;;;11.80;72.60;;;;;;4937535;28;20050;-82
2021/12/16 14:27:08;;;;;;;14.70;14.00;;;11.80;72.70;;;;;;4939356;28;20031;-82
2021/12/16 14:37:48;;;;;;;14.73;14.05;;;11.70;72.80;;;;;;4950598;28;20504;-82
2021/12/16 14:40:39;;;;;;;13.95;13.25;;;11.70;72.70;;;;;;4951925;29;20055;-81
2021/12/16 14:43:52;;;;;;;17.40;16.60;;;11.60;72.60;;;;;;4961099;28;20034;-83
2021/12/16 14:46:03;;;;;;;13.23;12.63;;;11.60;72.50;;;;;;4951745;28;20034;-82
2021/12/16 14:48:35;;;;;;;15.65;14.95;;;11.60;72.40;;;;;;4939343;28;20047;-81
2021/12/16 14:51:04;;;;;;;15.75;15.05;;;11.60;72.40;;;;;;4968463;28;20123;-82
2021/12/16 14:53:35;;;;;;;17.20;16.40;;;11.70;72.50;;;;;;4938389;28;20043;-81
2021/12/16 14:56:31;;;;;;;14.63;13.82;;;11.70;72.40;;;;;;4952881;28;20046;-81
2021/12/16 14:59:03;;;;;;;14.35;13.65;;;11.70;72.50;;;;;;4925518;29;20047;-81
2021/12/16 15:01:34;;;;;;;17.55;16.60;;;11.70;72.50;;;;;;4933612;29;20066;-82
2021/12/16 15:04:01;;;;;;;14.60;13.90;;;11.70;72.50;;;;;;4960387;28;20035;-82
2021/12/16 15:06:45;;;;;;;15.63;14.93;;;11.70;72.40;;;;;;4946056;28;20393;-82
2021/12/16 15:09:38;;;;;;;16.27;15.48;;;11.60;72.40;;;;;;4935869;28;20062;-81
2021/12/16 15:12:30;;;;;;;13.02;12.43;;;11.60;73.00;;;;;;4965815;28;20046;-83
2021/12/16 15:43:49;;;;;;;13.80;13.20;;;11.50;72.70;;;;;;4940749;28;20052;-83
2021/12/16 15:46:17;;;;;;;15.13;14.43;;;11.50;72.80;;;;;;4931510;28;20039;-83
2021/12/16 15:48:47;;;;;;;13.90;13.30;;;11.50;72.80;;;;;;4940340;28;20047;-83
2021/12/16 15:51:13;;;;;;;13.73;13.13;;;11.50;72.80;;;;;;4951271;28;20027;-83
2021/12/16 15:53:45;;;;;;;15.75;15.05;;;11.50;72.90;;;;;;4950290;29;20039;-82
2021/12/16 15:56:11;;;;;;;15.35;14.65;;;11.50;72.90;;;;;;4939698;28;20035;-85
2021/12/16 15:58:39;;;;;;;14.32;13.65;;;11.50;73.00;;;;;;4930066;29;20055;-82
2021/12/16 16:01:12;;;;;;;13.73;13.02;;;11.50;73.00;;;;;;4923461;28;20043;-84
2021/12/16 16:03:38;;;;;;;15.70;15.00;;;11.50;72.90;;;;;;4920827;29;20036;-82
2021/12/16 16:06:06;;;;;;;18.10;17.27;;;11.40;72.90;;;;;;4900156;29;20547;-80
2021/12/16 16:08:35;;;;;;;14.85;14.15;;;11.40;72.90;;;;;;4916740;29;20440;-81
2021/12/16 16:11:03;;;;;;;12.95;12.35;;;11.40;72.90;;;;;;4903263;29;20036;-81
2021/12/16 16:13:32;;;;;;;23.13;22.02;;;11.40;73.00;;;;;;4921205;29;20044;-81
2021/12/16 16:16:01;;;;;;;15.35;14.65;;;11.40;73.00;;;;;;4904746;29;20036;-81
2021/12/16 16:21:03;;;;;;;15.35;14.55;;;11.40;72.90;;;;;;4968244;28;20059;-81
2021/12/16 16:23:30;;;;;;;18.60;17.73;;;11.40;73.00;;;;;;4990544;28;20037;-81
2021/12/16 16:25:57;;;;;;;17.80;16.98;;;11.40;73.00;;;;;;4972565;28;20387;-80
2021/12/16 16:28:24;;;;;;;13.60;13.00;;;11.40;72.80;;;;;;4990313;28;20506;-80
2021/12/16 16:30:51;;;;;;;17.05;16.25;;;11.40;72.70;;;;;;4997651;28;20506;-81
2021/12/16 16:33:19;;;;;;;13.68;13.07;;;11.40;72.80;;;;;;5009148;28;20403;-82
2021/12/16 16:35:55;;;;;;;14.65;13.95;;;11.40;72.80;;;;;;5007261;28;20061;-82
2021/12/16 16:38:25;;;;;;;13.63;13.02;;;11.40;72.80;;;;;;5011138;28;20042;-80
2021/12/16 16:40:52;;;;;;;13.98;13.15;;;11.40;72.80;;;;;;5011351;28;20462;-81
2021/12/16 16:43:29;;;;;;;13.48;12.88;;;11.40;72.90;;;;;;5003846;28;20042;-80
2021/12/16 16:45:59;;;;;;;15.07;14.38;;;11.40;72.90;;;;;;5001928;28;20038;-80
2021/12/16 16:48:42;;;;;;;14.00;13.40;;;11.40;73.00;;;;;;5008662;28;20034;-80
2021/12/16 16:51:11;;;;;;;14.65;13.95;;;11.40;73.00;;;;;;5008722;28;20026;-80
2021/12/16 16:54:04;;;;;;;14.80;14.00;;;11.40;73.00;;;;;;5008616;28;20045;-81